Portada
METAR-TAF:

METAR-TAF

Aeroports :

Base aèria

Hachinohe, Japó

latitud: 40-33N, longitud: 141-28E, altitud: 46 m

Observació

L'informe es va fer fa 12 hores i 3 minuts, a les 03:48 UTC
Vent 16 kt del Oest/Nord-Oest amb ràfegues de 26 kt, variant entre Oest i Nord-Oest
Temperatura 10°C
Humitat 37%
Pressió 1021 hPa
Visibilitat 10 km o més
Escasses núvols a una alçada de 3000 ft
Núvols disperses a una alçada de 6000 ft

METAR: RJSH 240348Z 29016G26KT 260V320 9999 FEW030 SCT060 10/M04 Q1021 RMK 1CU030 3SC060 A3017

Hora: 00:51 (15:51 UTC)


TAF: manca

Observacions i pronòstics meteorològics de més de 4000 aeroports (METAR i TAF).

Les estacions disponibles són els punts grocs i vermells al mapa.

Posi el ratolí al punt desitjat per veure el nom de l'estació.

Feu clic per veure les observacions i els pronòstics meteorològics.

Per canviar el mapa: feu clic els botons verds amb una creu de color negre per apropar; al botó verd amb un guió per allunyar la imatge; o en les fletxes verdes per a mapes adjacents.


METAR-TAF: